sensor_id;sensor_type;location;lat;lon;timestamp;temperature;humidity
17208;DHT22;8720;48.488;9.202;2023-04-03T00:00:35;6.60;52.40
17208;DHT22;8720;48.488;9.202;2023-04-03T00:03:03;6.60;52.30
17208;DHT22;8720;48.488;9.202;2023-04-03T00:05:32;6.60;52.30
17208;DHT22;8720;48.488;9.202;2023-04-03T00:07:59;6.60;52.20
17208;DHT22;8720;48.488;9.202;2023-04-03T00:10:27;6.60;52.20
17208;DHT22;8720;48.488;9.202;2023-04-03T00:12:55;6.60;52.20
17208;DHT22;8720;48.488;9.202;2023-04-03T00:15:23;6.60;52.30
17208;DHT22;8720;48.488;9.202;2023-04-03T00:17:50;6.60;52.30
17208;DHT22;8720;48.488;9.202;2023-04-03T00:20:17;6.60;52.30
17208;DHT22;8720;48.488;9.202;2023-04-03T00:22:46;6.60;52.20
17208;DHT22;8720;48.488;9.202;2023-04-03T00:25:13;6.60;52.10
17208;DHT22;8720;48.488;9.202;2023-04-03T00:27:41;6.50;52.10
17208;DHT22;8720;48.488;9.202;2023-04-03T00:30:10;6.50;52.10
17208;DHT22;8720;48.488;9.202;2023-04-03T00:32:41;6.50;52.10
17208;DHT22;8720;48.488;9.202;2023-04-03T00:35:08;6.50;52.10
17208;DHT22;8720;48.488;9.202;2023-04-03T00:37:36;6.50;52.20
17208;DHT22;8720;48.488;9.202;2023-04-03T00:40:07;6.50;52.20
17208;DHT22;8720;48.488;9.202;2023-04-03T00:42:36;6.50;52.10
17208;DHT22;8720;48.488;9.202;2023-04-03T00:45:30;6.50;52.10
17208;DHT22;8720;48.488;9.202;2023-04-03T00:48:01;6.50;51.80
17208;DHT22;8720;48.488;9.202;2023-04-03T00:50:36;6.50;52.10
17208;DHT22;8720;48.488;9.202;2023-04-03T00:53:06;6.50;52.10
17208;DHT22;8720;48.488;9.202;2023-04-03T00:55:39;6.50;52.00
17208;DHT22;8720;48.488;9.202;2023-04-03T00:58:08;6.50;52.00
17208;DHT22;8720;48.488;9.202;2023-04-03T01:00:37;6.50;52.10
17208;DHT22;8720;48.488;9.202;2023-04-03T01:03:10;6.50;52.10
17208;DHT22;8720;48.488;9.202;2023-04-03T01:05:39;6.50;52.10
17208;DHT22;8720;48.488;9.202;2023-04-03T01:08:07;6.50;52.10
17208;DHT22;8720;48.488;9.202;2023-04-03T01:10:35;6.50;52.10
17208;DHT22;8720;48.488;9.202;2023-04-03T01:13:18;6.50;52.10
17208;DHT22;8720;48.488;9.202;2023-04-03T01:15:50;6.40;51.70
17208;DHT22;8720;48.488;9.202;2023-04-03T01:18:17;6.40;52.10
17208;DHT22;8720;48.488;9.202;2023-04-03T01:24:30;6.40;51.80
17208;DHT22;8720;48.488;9.202;2023-04-03T01:27:06;6.40;51.80
17208;DHT22;8720;48.488;9.202;2023-04-03T01:29:37;6.40;52.00
17208;DHT22;8720;48.488;9.202;2023-04-03T01:32:08;6.30;51.90
17208;DHT22;8720;48.488;9.202;2023-04-03T01:34:35;6.30;51.90
17208;DHT22;8720;48.488;9.202;2023-04-03T01:37:04;6.30;52.00
17208;DHT22;8720;48.488;9.202;2023-04-03T01:39:31;6.30;51.90
17208;DHT22;8720;48.488;9.202;2023-04-03T01:41:59;6.30;51.90
17208;DHT22;8720;48.488;9.202;2023-04-03T01:44:33;6.30;51.90
17208;DHT22;8720;48.488;9.202;2023-04-03T01:47:01;6.30;52.00
17208;DHT22;8720;48.488;9.202;2023-04-03T01:49:30;6.30;52.10
17208;DHT22;8720;48.488;9.202;2023-04-03T01:51:58;6.20;51.90
17208;DHT22;8720;48.488;9.202;2023-04-03T01:54:25;6.20;51.90
17208;DHT22;8720;48.488;9.202;2023-04-03T01:56:53;6.20;51.90
17208;DHT22;8720;48.488;9.202;2023-04-03T01:59:21;6.20;51.90
17208;DHT22;8720;48.488;9.202;2023-04-03T02:04:16;6.20;51.90
17208;DHT22;8720;48.488;9.202;2023-04-03T02:06:44;6.20;51.90
17208;DHT22;8720;48.488;9.202;2023-04-03T02:09:12;6.20;51.90
17208;DHT22;8720;48.488;9.202;2023-04-03T02:11:40;6.20;51.90
17208;DHT22;8720;48.488;9.202;2023-04-03T02:14:07;6.20;51.90
17208;DHT22;8720;48.488;9.202;2023-04-03T02:16:35;6.20;51.90
17208;DHT22;8720;48.488;9.202;2023-04-03T02:19:02;6.20;51.90
17208;DHT22;8720;48.488;9.202;2023-04-03T02:21:30;6.10;51.80
17208;DHT22;8720;48.488;9.202;2023-04-03T02:23:58;6.10;51.80
17208;DHT22;8720;48.488;9.202;2023-04-03T02:26:26;6.10;51.80
17208;DHT22;8720;48.488;9.202;2023-04-03T02:28:53;6.10;51.90
17208;DHT22;8720;48.488;9.202;2023-04-03T02:31:20;6.10;51.90
17208;DHT22;8720;48.488;9.202;2023-04-03T02:33:50;6.10;51.90
17208;DHT22;8720;48.488;9.202;2023-04-03T02:36:18;6.10;51.80
17208;DHT22;8720;48.488;9.202;2023-04-03T02:38:51;6.10;51.80
17208;DHT22;8720;48.488;9.202;2023-04-03T02:41:20;6.00;51.70
17208;DHT22;8720;48.488;9.202;2023-04-03T02:43:49;6.00;52.30
17208;DHT22;8720;48.488;9.202;2023-04-03T02:46:16;6.00;51.80
17208;DHT22;8720;48.488;9.202;2023-04-03T02:48:43;6.00;51.80
17208;DHT22;8720;48.488;9.202;2023-04-03T02:51:11;6.00;51.90
17208;DHT22;8720;48.488;9.202;2023-04-03T02:53:38;6.00;51.90
17208;DHT22;8720;48.488;9.202;2023-04-03T02:56:11;6.00;51.90
17208;DHT22;8720;48.488;9.202;2023-04-03T02:58:40;6.00;51.80
17208;DHT22;8720;48.488;9.202;2023-04-03T03:01:09;6.00;51.70
17208;DHT22;8720;48.488;9.202;2023-04-03T03:03:37;6.00;51.80
17208;DHT22;8720;48.488;9.202;2023-04-03T03:06:05;6.00;51.80
17208;DHT22;8720;48.488;9.202;2023-04-03T03:08:35;6.00;51.70
17208;DHT22;8720;48.488;9.202;2023-04-03T03:11:04;6.10;51.70
17208;DHT22;8720;48.488;9.202;2023-04-03T03:13:32;6.00;51.70
17208;DHT22;8720;48.488;9.202;2023-04-03T03:16:02;6.00;51.60
17208;DHT22;8720;48.488;9.202;2023-04-03T03:18:30;6.00;51.60
17208;DHT22;8720;48.488;9.202;2023-04-03T03:20:59;6.00;51.60
17208;DHT22;8720;48.488;9.202;2023-04-03T03:23:28;6.00;51.50
17208;DHT22;8720;48.488;9.202;2023-04-03T03:25:58;6.00;51.60
17208;DHT22;8720;48.488;9.202;2023-04-03T03:28:27;6.00;51.60
17208;DHT22;8720;48.488;9.202;2023-04-03T03:30:57;6.00;51.60
17208;DHT22;8720;48.488;9.202;2023-04-03T03:33:27;6.00;51.50
17208;DHT22;8720;48.488;9.202;2023-04-03T03:35:55;6.00;51.30
17208;DHT22;8720;48.488;9.202;2023-04-03T03:38:23;6.00;51.30
17208;DHT22;8720;48.488;9.202;2023-04-03T03:40:51;6.00;51.30
17208;DHT22;8720;48.488;9.202;2023-04-03T03:43:20;6.00;51.30
17208;DHT22;8720;48.488;9.202;2023-04-03T03:45:50;5.90;51.20
17208;DHT22;8720;48.488;9.202;2023-04-03T03:48:19;5.90;51.10
17208;DHT22;8720;48.488;9.202;2023-04-03T03:50:49;5.90;51.10
17208;DHT22;8720;48.488;9.202;2023-04-03T03:53:18;5.90;51.20
17208;DHT22;8720;48.488;9.202;2023-04-03T03:55:47;5.90;51.20
17208;DHT22;8720;48.488;9.202;2023-04-03T03:58:15;5.80;51.20
17208;DHT22;8720;48.488;9.202;2023-04-03T04:00:42;5.80;51.30
17208;DHT22;8720;48.488;9.202;2023-04-03T04:03:10;5.80;51.30
17208;DHT22;8720;48.488;9.202;2023-04-03T04:05:38;5.80;51.30
17208;DHT22;8720;48.488;9.202;2023-04-03T04:08:06;5.80;51.40
17208;DHT22;8720;48.488;9.202;2023-04-03T04:10:34;5.80;51.30
17208;DHT22;8720;48.488;9.202;2023-04-03T04:13:02;5.80;52.10
17208;DHT22;8720;48.488;9.202;2023-04-03T04:15:30;5.80;51.40
17208;DHT22;8720;48.488;9.202;2023-04-03T04:17:58;5.80;51.40
17208;DHT22;8720;48.488;9.202;2023-04-03T04:20:25;5.90;51.50
17208;DHT22;8720;48.488;9.202;2023-04-03T04:22:53;5.90;51.50
17208;DHT22;8720;48.488;9.202;2023-04-03T04:25:23;5.90;51.40
17208;DHT22;8720;48.488;9.202;2023-04-03T04:27:50;5.90;51.30
17208;DHT22;8720;48.488;9.202;2023-04-03T04:30:18;5.90;51.30
17208;DHT22;8720;48.488;9.202;2023-04-03T04:32:49;5.90;51.20
17208;DHT22;8720;48.488;9.202;2023-04-03T04:35:16;5.90;51.00
17208;DHT22;8720;48.488;9.202;2023-04-03T04:37:46;5.90;50.70
17208;DHT22;8720;48.488;9.202;2023-04-03T04:40:14;5.90;50.60
17208;DHT22;8720;48.488;9.202;2023-04-03T04:42:44;5.90;50.40
17208;DHT22;8720;48.488;9.202;2023-04-03T04:45:11;6.00;50.40
17208;DHT22;8720;48.488;9.202;2023-04-03T04:47:41;6.00;50.20
17208;DHT22;8720;48.488;9.202;2023-04-03T04:50:10;6.00;49.90
17208;DHT22;8720;48.488;9.202;2023-04-03T04:52:38;5.90;49.60
17208;DHT22;8720;48.488;9.202;2023-04-03T04:55:08;5.90;49.50
17208;DHT22;8720;48.488;9.202;2023-04-03T04:57:35;5.90;49.50
17208;DHT22;8720;48.488;9.202;2023-04-03T05:00:07;6.00;49.60
17208;DHT22;8720;48.488;9.202;2023-04-03T05:02:35;6.00;49.60
17208;DHT22;8720;48.488;9.202;2023-04-03T05:05:03;6.00;49.70
17208;DHT22;8720;48.488;9.202;2023-04-03T05:07:32;6.00;49.60
17208;DHT22;8720;48.488;9.202;2023-04-03T05:10:01;6.10;49.60
17208;DHT22;8720;48.488;9.202;2023-04-03T05:12:32;6.10;49.60
17208;DHT22;8720;48.488;9.202;2023-04-03T05:15:03;6.10;49.60
17208;DHT22;8720;48.488;9.202;2023-04-03T05:17:33;6.10;49.50
17208;DHT22;8720;48.488;9.202;2023-04-03T05:20:02;6.10;49.40
17208;DHT22;8720;48.488;9.202;2023-04-03T05:22:30;6.10;49.50
17208;DHT22;8720;48.488;9.202;2023-04-03T05:25:05;6.10;49.50
17208;DHT22;8720;48.488;9.202;2023-04-03T05:27:33;6.10;49.60
17208;DHT22;8720;48.488;9.202;2023-04-03T05:30:02;6.10;49.60
17208;DHT22;8720;48.488;9.202;2023-04-03T05:32:33;6.10;49.60
17208;DHT22;8720;48.488;9.202;2023-04-03T05:35:11;6.10;49.60
17208;DHT22;8720;48.488;9.202;2023-04-03T05:37:40;6.10;49.70
17208;DHT22;8720;48.488;9.202;2023-04-03T05:40:09;6.10;49.60
17208;DHT22;8720;48.488;9.202;2023-04-03T05:42:40;6.10;49.70
17208;DHT22;8720;48.488;9.202;2023-04-03T05:45:08;6.10;49.40
17208;DHT22;8720;48.488;9.202;2023-04-03T05:47:37;6.10;49.20
17208;DHT22;8720;48.488;9.202;2023-04-03T05:50:07;6.20;48.90
17208;DHT22;8720;48.488;9.202;2023-04-03T05:52:37;6.20;48.90
17208;DHT22;8720;48.488;9.202;2023-04-03T05:55:07;6.20;48.60
17208;DHT22;8720;48.488;9.202;2023-04-03T05:57:35;6.20;48.50
17208;DHT22;8720;48.488;9.202;2023-04-03T06:00:05;6.30;48.40
17208;DHT22;8720;48.488;9.202;2023-04-03T06:02:41;6.30;48.30
17208;DHT22;8720;48.488;9.202;2023-04-03T06:05:15;6.30;48.00
17208;DHT22;8720;48.488;9.202;2023-04-03T06:07:43;6.30;48.00
17208;DHT22;8720;48.488;9.202;2023-04-03T06:10:11;6.40;48.10
17208;DHT22;8720;48.488;9.202;2023-04-03T06:12:39;6.40;48.00
17208;DHT22;8720;48.488;9.202;2023-04-03T06:15:08;6.40;47.80
17208;DHT22;8720;48.488;9.202;2023-04-03T06:17:35;6.40;47.50
17208;DHT22;8720;48.488;9.202;2023-04-03T06:20:05;6.50;47.40
17208;DHT22;8720;48.488;9.202;2023-04-03T06:22:34;6.50;46.90
17208;DHT22;8720;48.488;9.202;2023-04-03T06:25:02;6.50;47.10
17208;DHT22;8720;48.488;9.202;2023-04-03T06:27:30;6.50;47.30
17208;DHT22;8720;48.488;9.202;2023-04-03T06:29:57;6.50;47.30
17208;DHT22;8720;48.488;9.202;2023-04-03T06:32:25;6.60;47.40
17208;DHT22;8720;48.488;9.202;2023-04-03T06:34:52;6.60;47.30
17208;DHT22;8720;48.488;9.202;2023-04-03T06:37:22;6.60;47.20
17208;DHT22;8720;48.488;9.202;2023-04-03T06:39:51;6.70;47.10
17208;DHT22;8720;48.488;9.202;2023-04-03T06:42:19;6.70;47.20
17208;DHT22;8720;48.488;9.202;2023-04-03T06:44:53;6.70;47.10
17208;DHT22;8720;48.488;9.202;2023-04-03T06:47:21;6.70;47.30
17208;DHT22;8720;48.488;9.202;2023-04-03T06:49:48;6.70;47.30
17208;DHT22;8720;48.488;9.202;2023-04-03T06:52:15;6.70;47.30
17208;DHT22;8720;48.488;9.202;2023-04-03T06:54:44;6.70;47.20
17208;DHT22;8720;48.488;9.202;2023-04-03T06:57:12;6.70;47.20
17208;DHT22;8720;48.488;9.202;2023-04-03T06:59:41;6.70;47.20
17208;DHT22;8720;48.488;9.202;2023-04-03T07:02:10;6.70;47.20
17208;DHT22;8720;48.488;9.202;2023-04-03T07:04:39;6.70;47.10
17208;DHT22;8720;48.488;9.202;2023-04-03T07:07:06;6.70;47.20
17208;DHT22;8720;48.488;9.202;2023-04-03T07:09:34;6.80;47.10
17208;DHT22;8720;48.488;9.202;2023-04-03T07:12:03;6.80;47.20
17208;DHT22;8720;48.488;9.202;2023-04-03T07:14:30;6.80;47.10
17208;DHT22;8720;48.488;9.202;2023-04-03T07:16:58;6.80;47.20
17208;DHT22;8720;48.488;9.202;2023-04-03T07:19:25;6.80;47.90
17208;DHT22;8720;48.488;9.202;2023-04-03T07:21:53;6.90;47.40
17208;DHT22;8720;48.488;9.202;2023-04-03T07:24:21;7.00;46.80
17208;DHT22;8720;48.488;9.202;2023-04-03T07:26:49;7.00;46.90
17208;DHT22;8720;48.488;9.202;2023-04-03T07:29:18;7.10;47.00
17208;DHT22;8720;48.488;9.202;2023-04-03T07:31:47;7.20;46.70
17208;DHT22;8720;48.488;9.202;2023-04-03T07:34:15;7.30;46.60
17208;DHT22;8720;48.488;9.202;2023-04-03T07:36:42;7.50;46.60
17208;DHT22;8720;48.488;9.202;2023-04-03T07:39:09;7.50;46.40
17208;DHT22;8720;48.488;9.202;2023-04-03T07:41:37;7.60;46.30
17208;DHT22;8720;48.488;9.202;2023-04-03T07:44:04;7.70;46.40
17208;DHT22;8720;48.488;9.202;2023-04-03T07:46:36;7.90;46.40
17208;DHT22;8720;48.488;9.202;2023-04-03T07:49:04;8.00;46.10
17208;DHT22;8720;48.488;9.202;2023-04-03T07:51:33;8.20;46.50
17208;DHT22;8720;48.488;9.202;2023-04-03T07:54:05;8.40;46.10
17208;DHT22;8720;48.488;9.202;2023-04-03T07:56:33;8.70;46.30
17208;DHT22;8720;48.488;9.202;2023-04-03T07:59:00;8.90;45.90
17208;DHT22;8720;48.488;9.202;2023-04-03T08:01:28;9.10;45.70
17208;DHT22;8720;48.488;9.202;2023-04-03T08:03:59;9.20;45.50
17208;DHT22;8720;48.488;9.202;2023-04-03T08:06:27;9.40;44.70
17208;DHT22;8720;48.488;9.202;2023-04-03T08:08:56;9.50;44.90
17208;DHT22;8720;48.488;9.202;2023-04-03T08:11:24;9.50;45.00
17208;DHT22;8720;48.488;9.202;2023-04-03T08:13:52;9.60;44.80
17208;DHT22;8720;48.488;9.202;2023-04-03T08:16:23;9.60;44.00
17208;DHT22;8720;48.488;9.202;2023-04-03T08:18:52;9.60;43.90
17208;DHT22;8720;48.488;9.202;2023-04-03T08:21:22;9.60;44.10
17208;DHT22;8720;48.488;9.202;2023-04-03T08:23:52;9.60;43.70
17208;DHT22;8720;48.488;9.202;2023-04-03T08:26:20;9.60;43.70
17208;DHT22;8720;48.488;9.202;2023-04-03T08:28:48;9.50;43.60
17208;DHT22;8720;48.488;9.202;2023-04-03T08:31:18;9.50;44.00
17208;DHT22;8720;48.488;9.202;2023-04-03T08:33:46;9.40;43.60
17208;DHT22;8720;48.488;9.202;2023-04-03T08:36:22;9.40;43.60
17208;DHT22;8720;48.488;9.202;2023-04-03T08:38:52;9.30;43.30
17208;DHT22;8720;48.488;9.202;2023-04-03T08:41:29;9.30;43.50
17208;DHT22;8720;48.488;9.202;2023-04-03T08:44:10;9.20;43.00
17208;DHT22;8720;48.488;9.202;2023-04-03T08:46:52;9.10;43.00
17208;DHT22;8720;48.488;9.202;2023-04-03T08:49:39;9.00;43.20
17208;DHT22;8720;48.488;9.202;2023-04-03T08:52:16;9.00;43.50
17208;DHT22;8720;48.488;9.202;2023-04-03T08:54:50;8.90;43.40
17208;DHT22;8720;48.488;9.202;2023-04-03T08:57:26;8.90;43.30
17208;DHT22;8720;48.488;9.202;2023-04-03T09:00:00;8.90;43.20
17208;DHT22;8720;48.488;9.202;2023-04-03T09:02:45;8.90;43.20
17208;DHT22;8720;48.488;9.202;2023-04-03T09:05:16;8.90;42.80
17208;DHT22;8720;48.488;9.202;2023-04-03T09:07:49;8.90;43.00
17208;DHT22;8720;48.488;9.202;2023-04-03T09:10:29;8.90;43.20
17208;DHT22;8720;48.488;9.202;2023-04-03T09:13:03;9.00;42.90
17208;DHT22;8720;48.488;9.202;2023-04-03T09:15:36;9.00;42.90
17208;DHT22;8720;48.488;9.202;2023-04-03T09:18:08;9.00;42.90
17208;DHT22;8720;48.488;9.202;2023-04-03T09:20:46;8.90;42.60
17208;DHT22;8720;48.488;9.202;2023-04-03T09:23:27;8.90;42.30
17208;DHT22;8720;48.488;9.202;2023-04-03T09:26:01;8.90;42.60
17208;DHT22;8720;48.488;9.202;2023-04-03T09:28:35;8.90;42.50
17208;DHT22;8720;48.488;9.202;2023-04-03T09:31:17;8.80;42.40
17208;DHT22;8720;48.488;9.202;2023-04-03T09:33:48;8.80;42.50
17208;DHT22;8720;48.488;9.202;2023-04-03T09:36:39;8.90;43.20
17208;DHT22;8720;48.488;9.202;2023-04-03T09:39:13;8.90;42.40
17208;DHT22;8720;48.488;9.202;2023-04-03T09:41:42;9.00;43.00
17208;DHT22;8720;48.488;9.202;2023-04-03T09:44:25;9.00;43.30
17208;DHT22;8720;48.488;9.202;2023-04-03T09:46:53;9.00;42.90
17208;DHT22;8720;48.488;9.202;2023-04-03T09:49:21;9.00;42.90
17208;DHT22;8720;48.488;9.202;2023-04-03T09:51:48;9.00;42.60
17208;DHT22;8720;48.488;9.202;2023-04-03T09:54:34;9.00;42.60
17208;DHT22;8720;48.488;9.202;2023-04-03T09:57:10;8.90;42.00
17208;DHT22;8720;48.488;9.202;2023-04-03T09:59:44;8.90;42.50
17208;DHT22;8720;48.488;9.202;2023-04-03T10:02:27;8.80;42.30
17208;DHT22;8720;48.488;9.202;2023-04-03T10:04:59;8.80;42.30
17208;DHT22;8720;48.488;9.202;2023-04-03T10:07:29;8.80;43.20
17208;DHT22;8720;48.488;9.202;2023-04-03T10:10:17;8.80;43.00
17208;DHT22;8720;48.488;9.202;2023-04-03T10:12:46;8.80;42.60
17208;DHT22;8720;48.488;9.202;2023-04-03T10:15:15;8.90;43.30
17208;DHT22;8720;48.488;9.202;2023-04-03T10:17:53;8.90;43.20
17208;DHT22;8720;48.488;9.202;2023-04-03T10:20:33;9.00;42.60
17208;DHT22;8720;48.488;9.202;2023-04-03T10:23:16;9.00;42.40
17208;DHT22;8720;48.488;9.202;2023-04-03T10:25:57;9.00;42.40
17208;DHT22;8720;48.488;9.202;2023-04-03T10:28:43;9.10;42.60
17208;DHT22;8720;48.488;9.202;2023-04-03T10:31:20;9.10;42.40
17208;DHT22;8720;48.488;9.202;2023-04-03T10:33:58;9.10;42.20
17208;DHT22;8720;48.488;9.202;2023-04-03T10:36:40;9.10;41.50
17208;DHT22;8720;48.488;9.202;2023-04-03T10:39:22;9.00;41.50
17208;DHT22;8720;48.488;9.202;2023-04-03T10:42:03;9.00;40.90
17208;DHT22;8720;48.488;9.202;2023-04-03T10:44:45;9.00;40.70
17208;DHT22;8720;48.488;9.202;2023-04-03T10:47:24;8.90;41.10
17208;DHT22;8720;48.488;9.202;2023-04-03T10:50:04;8.90;41.20
17208;DHT22;8720;48.488;9.202;2023-04-03T10:52:51;8.90;41.20
17208;DHT22;8720;48.488;9.202;2023-04-03T10:55:34;8.90;41.00
17208;DHT22;8720;48.488;9.202;2023-04-03T10:58:07;8.90;41.00
17208;DHT22;8720;48.488;9.202;2023-04-03T11:00:46;8.90;41.40
17208;DHT22;8720;48.488;9.202;2023-04-03T11:03:27;8.80;41.20
17208;DHT22;8720;48.488;9.202;2023-04-03T11:06:01;8.90;40.90
17208;DHT22;8720;48.488;9.202;2023-04-03T11:08:36;8.90;41.20
17208;DHT22;8720;48.488;9.202;2023-04-03T11:11:13;8.90;40.20
17208;DHT22;8720;48.488;9.202;2023-04-03T11:13:49;8.90;40.70
17208;DHT22;8720;48.488;9.202;2023-04-03T11:16:26;9.00;40.50
17208;DHT22;8720;48.488;9.202;2023-04-03T11:19:01;9.00;41.10
17208;DHT22;8720;48.488;9.202;2023-04-03T11:21:34;9.10;40.90
17208;DHT22;8720;48.488;9.202;2023-04-03T11:24:14;9.20;41.20
17208;DHT22;8720;48.488;9.202;2023-04-03T11:26:49;9.20;40.50
17208;DHT22;8720;48.488;9.202;2023-04-03T11:29:22;9.20;40.70
17208;DHT22;8720;48.488;9.202;2023-04-03T11:32:09;9.30;40.90
17208;DHT22;8720;48.488;9.202;2023-04-03T11:34:53;9.30;39.60
17208;DHT22;8720;48.488;9.202;2023-04-03T11:37:28;9.20;40.70
17208;DHT22;8720;48.488;9.202;2023-04-03T11:40:02;9.20;40.80
17208;DHT22;8720;48.488;9.202;2023-04-03T11:42:36;9.20;40.20
17208;DHT22;8720;48.488;9.202;2023-04-03T11:45:37;9.20;40.40
17208;DHT22;8720;48.488;9.202;2023-04-03T11:48:42;9.20;39.50
17208;DHT22;8720;48.488;9.202;2023-04-03T11:51:39;9.10;39.50
17208;DHT22;8720;48.488;9.202;2023-04-03T11:54:42;9.10;39.70
17208;DHT22;8720;48.488;9.202;2023-04-03T11:57:49;9.10;39.90
17208;DHT22;8720;48.488;9.202;2023-04-03T12:00:57;9.00;39.20
17208;DHT22;8720;48.488;9.202;2023-04-03T12:10:16;8.90;38.80
17208;DHT22;8720;48.488;9.202;2023-04-03T12:12:58;8.80;39.60
17208;DHT22;8720;48.488;9.202;2023-04-03T12:15:47;8.80;39.70
17208;DHT22;8720;48.488;9.202;2023-04-03T12:19:00;8.80;39.80
17208;DHT22;8720;48.488;9.202;2023-04-03T12:22:05;8.90;39.60
17208;DHT22;8720;48.488;9.202;2023-04-03T12:24:38;9.00;39.70
17208;DHT22;8720;48.488;9.202;2023-04-03T12:27:38;9.00;41.20
17208;DHT22;8720;48.488;9.202;2023-04-03T12:30:21;9.10;39.00
17208;DHT22;8720;48.488;9.202;2023-04-03T12:33:10;9.10;39.70
17208;DHT22;8720;48.488;9.202;2023-04-03T12:35:57;9.20;39.60
17208;DHT22;8720;48.488;9.202;2023-04-03T12:38:58;9.20;39.50
17208;DHT22;8720;48.488;9.202;2023-04-03T12:41:40;9.20;39.40
17208;DHT22;8720;48.488;9.202;2023-04-03T12:44:26;9.20;40.00
17208;DHT22;8720;48.488;9.202;2023-04-03T12:47:22;9.20;39.10
17208;DHT22;8720;48.488;9.202;2023-04-03T12:49:53;9.20;39.00
17208;DHT22;8720;48.488;9.202;2023-04-03T12:52:33;9.20;39.70
17208;DHT22;8720;48.488;9.202;2023-04-03T12:55:14;9.20;38.70
17208;DHT22;8720;48.488;9.202;2023-04-03T12:57:43;9.20;38.60
17208;DHT22;8720;48.488;9.202;2023-04-03T13:00:35;9.20;39.50
17208;DHT22;8720;48.488;9.202;2023-04-03T13:03:06;9.30;37.70
17208;DHT22;8720;48.488;9.202;2023-04-03T13:05:49;9.30;39.10
17208;DHT22;8720;48.488;9.202;2023-04-03T13:08:19;9.30;39.20
17208;DHT22;8720;48.488;9.202;2023-04-03T13:10:54;9.30;39.00
17208;DHT22;8720;48.488;9.202;2023-04-03T13:13:25;9.20;38.30
17208;DHT22;8720;48.488;9.202;2023-04-03T13:15:54;9.20;39.10
17208;DHT22;8720;48.488;9.202;2023-04-03T13:18:30;9.20;39.50
17208;DHT22;8720;48.488;9.202;2023-04-03T13:21:03;9.20;38.60
17208;DHT22;8720;48.488;9.202;2023-04-03T13:23:35;9.20;38.40
17208;DHT22;8720;48.488;9.202;2023-04-03T13:26:07;9.20;38.40
17208;DHT22;8720;48.488;9.202;2023-04-03T13:28:36;9.20;39.00
17208;DHT22;8720;48.488;9.202;2023-04-03T13:31:14;9.20;38.60
17208;DHT22;8720;48.488;9.202;2023-04-03T13:33:54;9.20;38.30
17208;DHT22;8720;48.488;9.202;2023-04-03T13:36:27;9.20;38.00
17208;DHT22;8720;48.488;9.202;2023-04-03T13:39:17;9.20;38.00
17208;DHT22;8720;48.488;9.202;2023-04-03T13:41:50;9.10;37.30
17208;DHT22;8720;48.488;9.202;2023-04-03T13:44:31;9.10;38.30
17208;DHT22;8720;48.488;9.202;2023-04-03T13:47:15;9.10;37.50
17208;DHT22;8720;48.488;9.202;2023-04-03T13:49:46;9.10;37.60
17208;DHT22;8720;48.488;9.202;2023-04-03T13:52:29;9.10;38.40
17208;DHT22;8720;48.488;9.202;2023-04-03T13:55:16;9.10;38.90
17208;DHT22;8720;48.488;9.202;2023-04-03T13:58:23;9.00;37.80
17208;DHT22;8720;48.488;9.202;2023-04-03T14:01:44;9.00;37.50
17208;DHT22;8720;48.488;9.202;2023-04-03T14:04:18;9.00;38.70
17208;DHT22;8720;48.488;9.202;2023-04-03T14:07:07;9.00;38.30
17208;DHT22;8720;48.488;9.202;2023-04-03T14:10:31;9.00;38.00
17208;DHT22;8720;48.488;9.202;2023-04-03T14:13:19;9.00;37.80
17208;DHT22;8720;48.488;9.202;2023-04-03T14:16:12;9.00;38.20
17208;DHT22;8720;48.488;9.202;2023-04-03T14:18:44;9.10;38.40
17208;DHT22;8720;48.488;9.202;2023-04-03T14:21:13;9.10;39.50
17208;DHT22;8720;48.488;9.202;2023-04-03T14:23:42;9.20;39.50
17208;DHT22;8720;48.488;9.202;2023-04-03T14:26:12;9.20;38.90
17208;DHT22;8720;48.488;9.202;2023-04-03T14:28:43;9.30;38.60
17208;DHT22;8720;48.488;9.202;2023-04-03T14:31:13;9.30;38.60
17208;DHT22;8720;48.488;9.202;2023-04-03T14:33:41;9.30;38.50
17208;DHT22;8720;48.488;9.202;2023-04-03T14:36:40;9.40;38.40
17208;DHT22;8720;48.488;9.202;2023-04-03T14:39:18;9.40;37.70
17208;DHT22;8720;48.488;9.202;2023-04-03T14:42:52;9.50;38.30
17208;DHT22;8720;48.488;9.202;2023-04-03T14:45:49;9.50;37.20
17208;DHT22;8720;48.488;9.202;2023-04-03T14:48:22;9.60;38.30
17208;DHT22;8720;48.488;9.202;2023-04-03T14:50:53;9.60;37.90
17208;DHT22;8720;48.488;9.202;2023-04-03T14:53:21;9.60;38.60
17208;DHT22;8720;48.488;9.202;2023-04-03T14:55:52;9.60;37.90
17208;DHT22;8720;48.488;9.202;2023-04-03T14:58:21;9.60;37.90
17208;DHT22;8720;48.488;9.202;2023-04-03T15:01:12;9.60;37.70
17208;DHT22;8720;48.488;9.202;2023-04-03T15:03:52;9.60;37.00
17208;DHT22;8720;48.488;9.202;2023-04-03T15:06:39;9.60;37.20
17208;DHT22;8720;48.488;9.202;2023-04-03T15:09:27;9.60;37.40
17208;DHT22;8720;48.488;9.202;2023-04-03T15:26:03;9.50;37.00
17208;DHT22;8720;48.488;9.202;2023-04-03T15:28:39;9.60;37.70
17208;DHT22;8720;48.488;9.202;2023-04-03T15:32:52;9.60;37.00
17208;DHT22;8720;48.488;9.202;2023-04-03T15:35:47;9.50;36.50
17208;DHT22;8720;48.488;9.202;2023-04-03T15:38:18;9.50;36.40
17208;DHT22;8720;48.488;9.202;2023-04-03T15:41:00;9.50;37.60
17208;DHT22;8720;48.488;9.202;2023-04-03T15:43:51;9.50;36.60
17208;DHT22;8720;48.488;9.202;2023-04-03T15:46:34;9.40;37.50
17208;DHT22;8720;48.488;9.202;2023-04-03T15:52:44;9.40;36.70
17208;DHT22;8720;48.488;9.202;2023-04-03T15:55:49;9.40;36.40
17208;DHT22;8720;48.488;9.202;2023-04-03T15:59:03;9.40;36.50
17208;DHT22;8720;48.488;9.202;2023-04-03T16:02:06;9.40;37.00
17208;DHT22;8720;48.488;9.202;2023-04-03T16:05:06;9.30;36.80
17208;DHT22;8720;48.488;9.202;2023-04-03T16:08:21;9.30;36.60
17208;DHT22;8720;48.488;9.202;2023-04-03T16:11:24;9.30;36.50
17208;DHT22;8720;48.488;9.202;2023-04-03T16:13:53;9.30;36.10
17208;DHT22;8720;48.488;9.202;2023-04-03T16:16:21;9.30;37.10
17208;DHT22;8720;48.488;9.202;2023-04-03T16:18:49;9.30;37.00
17208;DHT22;8720;48.488;9.202;2023-04-03T16:25:10;9.30;35.60
17208;DHT22;8720;48.488;9.202;2023-04-03T16:28:10;9.30;36.50
17208;DHT22;8720;48.488;9.202;2023-04-03T16:30:56;9.30;36.30
17208;DHT22;8720;48.488;9.202;2023-04-03T16:33:47;9.20;35.20
17208;DHT22;8720;48.488;9.202;2023-04-03T16:36:18;9.20;36.00
17208;DHT22;8720;48.488;9.202;2023-04-03T16:38:54;9.20;36.30
17208;DHT22;8720;48.488;9.202;2023-04-03T16:41:37;9.20;36.40
17208;DHT22;8720;48.488;9.202;2023-04-03T16:44:08;9.20;36.10
17208;DHT22;8720;48.488;9.202;2023-04-03T16:46:37;9.20;36.00
17208;DHT22;8720;48.488;9.202;2023-04-03T16:49:14;9.10;36.00
17208;DHT22;8720;48.488;9.202;2023-04-03T16:51:43;9.10;35.80
17208;DHT22;8720;48.488;9.202;2023-04-03T16:54:11;9.10;35.20
17208;DHT22;8720;48.488;9.202;2023-04-03T16:56:39;9.00;35.20
17208;DHT22;8720;48.488;9.202;2023-04-03T16:59:18;9.00;35.80
17208;DHT22;8720;48.488;9.202;2023-04-03T17:01:56;8.90;34.90
17208;DHT22;8720;48.488;9.202;2023-04-03T17:04:29;8.90;35.80
17208;DHT22;8720;48.488;9.202;2023-04-03T17:06:57;8.90;35.80
17208;DHT22;8720;48.488;9.202;2023-04-03T17:09:32;8.80;35.50
17208;DHT22;8720;48.488;9.202;2023-04-03T17:12:14;8.80;35.70
17208;DHT22;8720;48.488;9.202;2023-04-03T17:14:46;8.80;35.70
17208;DHT22;8720;48.488;9.202;2023-04-03T17:17:21;8.70;35.30
17208;DHT22;8720;48.488;9.202;2023-04-03T17:20:03;8.70;35.20
17208;DHT22;8720;48.488;9.202;2023-04-03T17:22:33;8.60;35.10
17208;DHT22;8720;48.488;9.202;2023-04-03T17:25:01;8.60;35.60